Weather History for Albertville, AL

Change the Weather History Date:

Saturday, February 2, 2013

  Actual Average (KGAD) Record (KGAD)
Temperature  
Mean Temperature 34 °F -  
Max Temperature 41 °F 51 °F 77 °F (1950)
Min Temperature 26 °F 32 °F 7 °F (1951)
Degree Days  
Heating Degree Days 32    
Moisture  
Dew Point 26 °F    
Average Humidity 75    
Maximum Humidity 100    
Minimum Humidity 51    
Precipitation  
Precipitation 0.16 in - - ()
Sea Level Pressure  
Sea Level Pressure 30.20 in    
Wind  
Wind Speed 5 mph (South)    
Max Wind Speed 10 mph    
Max Gust Speed -    
Visibility 8 miles    
Events Rain    
Averages and records for this station are not official NWS values.
T = Trace of Precipitation, MM = Missing Value Source: NWS Daily Summary

Daily Weather History Graph

Daily Weather History Graph

Search for Another Location

Airport:

Trip Planner

Search our weather history database for the weather conditions in past years. The results will help you decide how hot, cold, wet, or windy it might be!

Date:

Astronomy

Feb. 02, 2013 Rise Set
Actual Time 6:41 AM CST 5:16 PM CST
Civil Twilight 6:15 AM CST 5:42 PM CST
Nautical Twilight 5:45 AM CST 6:12 PM CST
Astronomical Twilight 5:15 AM CST 6:42 PM CST
Moon No Moon Rise 10:12 AM CST (2/2)
Length of Visible Light 11h 27m
Length of Day
10h 34m
Waning Gibbous, 59% of the Moon is Illuminated
Feb 2
Waning Gibbous
Feb 3
Last Quarter
Feb 10
New
Feb 17
First Quarter
Feb 25
Full

Hourly Weather History & Observations

Time (CST) Temp. Windchill Dew Point Humidity Pressure Visibility Wind Dir Wind Speed Gust Speed Precip Events Conditions
12:15 AM 28.4 °F 23.3 °F 17.6 °F 64% 30.32 in 10.0 mi SE 4.6 mph - N/A   Clear
12:35 AM 28.4 °F 23.3 °F 17.6 °F 64% 30.31 in 10.0 mi SE 4.6 mph - N/A   Clear
12:55 AM 28.4 °F - 14.0 °F 55% 30.32 in 10.0 mi Calm Calm - N/A   Clear
1:15 AM 26.6 °F 21.2 °F 19.4 °F 74% 30.31 in 10.0 mi SE 4.6 mph - N/A   Clear
1:35 AM 28.4 °F 22.2 °F 15.8 °F 59% 30.30 in 10.0 mi SE 5.8 mph - N/A   Clear
1:55 AM 26.6 °F 20.0 °F 15.8 °F 64% 30.29 in 10.0 mi ESE 5.8 mph - N/A   Clear
2:15 AM 28.4 °F 22.2 °F 14.0 °F 55% 30.29 in 10.0 mi SE 5.8 mph - N/A   Clear
2:35 AM 28.4 °F 22.2 °F 14.0 °F 55% 30.29 in 10.0 mi SE 5.8 mph - N/A   Clear
2:55 AM 28.4 °F 22.2 °F 14.0 °F 55% 30.29 in 10.0 mi SE 5.8 mph - N/A   Clear
3:15 AM 28.4 °F 23.3 °F 14.0 °F 55% 30.29 in 10.0 mi SE 4.6 mph - N/A   Clear
3:35 AM 28.4 °F 22.2 °F 14.0 °F 55% 30.28 in 10.0 mi ESE 5.8 mph - N/A   Clear
3:55 AM 28.4 °F 23.3 °F 14.0 °F 55% 30.27 in 10.0 mi SE 4.6 mph - N/A   Clear
4:15 AM 28.4 °F 22.2 °F 14.0 °F 55% 30.27 in 10.0 mi SE 5.8 mph - N/A   Clear
4:35 AM 28.4 °F 23.3 °F 15.8 °F 59% 30.27 in 10.0 mi ESE 4.6 mph - N/A   Clear
4:55 AM 28.4 °F 23.3 °F 14.0 °F 55% 30.28 in 10.0 mi SE 4.6 mph - N/A   Clear
5:15 AM 26.6 °F 22.6 °F 15.8 °F 64% 30.28 in 10.0 mi ESE 3.5 mph - N/A   Clear
5:55 AM 28.4 °F 22.2 °F 14.0 °F 55% 30.27 in 10.0 mi ESE 5.8 mph - N/A   Clear
6:15 AM 28.4 °F 21.2 °F 14.0 °F 55% 30.26 in 10.0 mi SE 6.9 mph - N/A   Clear
6:35 AM 28.4 °F 20.4 °F 14.0 °F 55% 30.25 in 10.0 mi SE 8.1 mph - N/A   Clear
6:55 AM 28.4 °F 22.2 °F 14.0 °F 55% 30.25 in 10.0 mi SE 5.8 mph - N/A   Clear
7:15 AM 28.4 °F 22.2 °F 14.0 °F 55% 30.26 in 10.0 mi SSE 5.8 mph - N/A   Clear
7:35 AM 30.2 °F 23.4 °F 14.0 °F 51% 30.25 in 10.0 mi SSE 6.9 mph - N/A   Clear
7:55 AM 32.0 °F 26.4 °F 15.8 °F 51% 30.26 in 10.0 mi SSE 5.8 mph - N/A   Clear
8:15 AM 32.0 °F 27.5 °F 15.8 °F 51% 30.26 in 10.0 mi SSE 4.6 mph - N/A   Mostly Cloudy
8:35 AM 32.0 °F - 15.8 °F 51% 30.27 in 10.0 mi Calm Calm - N/A   Overcast
8:55 AM 32.0 °F - 15.8 °F 51% 30.29 in 10.0 mi Calm Calm - N/A   Overcast
9:15 AM 33.8 °F - 17.6 °F 52% 30.29 in 10.0 mi Calm Calm - N/A Rain Light Rain
9:35 AM 33.8 °F 27.0 °F 21.2 °F 60% 30.30 in 10.0 mi NNE 8.1 mph - N/A   Overcast
9:55 AM 33.8 °F 29.6 °F 23.0 °F 65% 30.27 in 10.0 mi SSW 4.6 mph - N/A Rain Light Rain
10:15 AM 35.6 °F 32.8 °F 23.0 °F 60% 30.26 in 10.0 mi ESE 3.5 mph - N/A   Overcast
10:35 AM 35.6 °F 31.7 °F 21.2 °F 56% 30.25 in 10.0 mi SSE 4.6 mph - N/A Rain Light Rain
10:55 AM 37.4 °F 31.4 °F 23.0 °F 56% 30.24 in 10.0 mi SE 8.1 mph - N/A   Overcast
11:15 AM 37.4 °F 33.8 °F 23.0 °F 56% 30.22 in 10.0 mi SSE 4.6 mph - N/A   Overcast
11:35 AM 39.2 °F 35.9 °F 24.8 °F 56% 30.21 in 10.0 mi SSE 4.6 mph - N/A   Overcast
11:55 AM 39.2 °F 35.0 °F 26.6 °F 61% 30.19 in 10.0 mi South 5.8 mph - N/A   Overcast
12:15 PM 39.2 °F 35.0 °F 26.6 °F 61% 30.17 in 10.0 mi South 5.8 mph - N/A   Overcast
12:35 PM 41.0 °F 36.4 °F 28.4 °F 61% 30.15 in 10.0 mi South 6.9 mph - N/A   Overcast
12:55 PM 41.0 °F 37.1 °F 28.4 °F 61% 30.14 in 10.0 mi South 5.8 mph - N/A   Light Drizzle
1:15 PM 41.0 °F - 30.2 °F 65% 30.14 in 10.0 mi Calm Calm - N/A Rain Light Rain
1:35 PM 41.0 °F 39.0 °F 32.0 °F 70% 30.13 in 10.0 mi SSE 3.5 mph - N/A Rain Light Rain
1:55 PM 37.4 °F - 32.0 °F 81% 30.13 in 7.0 mi Calm Calm - N/A Rain Light Rain
2:15 PM 37.4 °F - 33.8 °F 87% 30.14 in 10.0 mi Calm Calm - 0.01 in Rain Light Rain
2:35 PM 37.4 °F 34.9 °F 37.4 °F 100% 30.14 in 3.0 mi SW 3.5 mph - 0.02 in Rain Light Rain
2:55 PM 39.2 °F - 33.8 °F 81% 30.13 in 10.0 mi Calm Calm - 0.03 in Rain Rain
3:15 PM 37.4 °F 34.9 °F 35.6 °F 93% 30.13 in 5.0 mi SSW 3.5 mph - 0.01 in Rain Light Rain
3:35 PM 37.4 °F 32.1 °F 37.4 °F 100% 30.14 in 3.0 mi SSW 6.9 mph - 0.04 in Rain Rain
3:55 PM 37.4 °F 32.1 °F 35.6 °F 93% 30.14 in 7.0 mi SW 6.9 mph - 0.07 in Rain Light Rain
4:15 PM 37.4 °F 32.8 °F 37.4 °F 100% 30.14 in 5.0 mi SW 5.8 mph - 0.03 in Rain Rain
4:35 PM 37.4 °F 33.8 °F 37.4 °F 100% 30.13 in 7.0 mi SSW 4.6 mph - 0.05 in Rain Light Rain
4:55 PM 37.4 °F 31.4 °F 37.4 °F 100% 30.12 in 10.0 mi South 8.1 mph - 0.06 in   Overcast
5:15 PM 37.4 °F 30.8 °F 37.4 °F 100% 30.12 in 10.0 mi WSW 9.2 mph - N/A   Mostly Cloudy
5:35 PM 37.4 °F 32.1 °F 37.4 °F 100% 30.12 in 10.0 mi WSW 6.9 mph - N/A   Mostly Cloudy
5:55 PM 37.4 °F 32.8 °F 37.4 °F 100% 30.12 in 10.0 mi SW 5.8 mph - N/A   Clear
6:15 PM 35.6 °F 30.7 °F 35.6 °F 100% 30.12 in 10.0 mi WSW 5.8 mph - N/A   Clear
6:35 PM 37.4 °F 32.1 °F 37.4 °F 100% 30.12 in 10.0 mi SW 6.9 mph - N/A   Clear
6:55 PM 37.4 °F 32.1 °F 37.4 °F 100% 30.12 in 10.0 mi WSW 6.9 mph - N/A   Clear
7:15 PM 35.6 °F 29.9 °F 35.6 °F 100% 30.12 in 10.0 mi SW 6.9 mph - N/A   Clear
7:35 PM 35.6 °F 31.7 °F 35.6 °F 100% 30.13 in 10.0 mi West 4.6 mph - N/A   Scattered Clouds
7:55 PM 35.6 °F 29.9 °F 35.6 °F 100% 30.14 in 7.0 mi West 6.9 mph - N/A   Scattered Clouds
8:15 PM 35.6 °F 29.9 °F 35.6 °F 100% 30.14 in 7.0 mi West 6.9 mph - N/A   Mostly Cloudy
8:35 PM 35.6 °F 29.9 °F 35.6 °F 100% 30.15 in 7.0 mi West 6.9 mph - N/A   Overcast
8:55 PM 37.4 °F 32.1 °F 37.4 °F 100% 30.16 in 5.0 mi West 6.9 mph - N/A   Overcast
9:15 PM 37.4 °F 31.4 °F 37.4 °F 100% 30.16 in 3.0 mi WSW 8.1 mph - N/A   Overcast
9:35 PM 37.4 °F 30.8 °F 37.4 °F 100% 30.16 in 1.2 mi WSW 9.2 mph - N/A   Overcast
9:55 PM 35.6 °F 29.9 °F 35.6 °F 100% 30.15 in 3.0 mi West 6.9 mph - N/A   Overcast
10:15 PM 35.6 °F 29.2 °F 35.6 °F 100% 30.14 in 2.0 mi WSW 8.1 mph - N/A   Overcast
10:35 PM 37.4 °F 31.4 °F 37.4 °F 100% 30.15 in 1.0 mi West 8.1 mph - N/A   Overcast
10:55 PM 37.4 °F 32.1 °F 37.4 °F 100% 30.15 in 1.5 mi West 6.9 mph - N/A   Overcast
11:15 PM 37.4 °F 31.4 °F 37.4 °F 100% 30.15 in 1.5 mi West 8.1 mph - N/A   Overcast
11:35 PM 37.4 °F 30.3 °F 37.4 °F 100% 30.15 in 3.0 mi West 10.4 mph - N/A   Overcast
11:55 PM 37.4 °F 32.1 °F 37.4 °F 100% 30.15 in 2.5 mi West 6.9 mph - N/A   Overcast